sensor_id;sensor_type;location;lat;lon;timestamp;pressure;altitude;pressure_sealevel;temperature;humidity
35910;BME280;22004;49.120;-0.200;2023-07-13T01:39:02;101628.25;;;18.21;71.74
35910;BME280;22004;49.120;-0.200;2023-07-13T01:41:28;101634.94;;;18.12;72.14
35910;BME280;22004;49.120;-0.200;2023-07-13T01:43:53;101632.00;;;18.14;72.05
35910;BME280;22004;49.120;-0.200;2023-07-13T01:46:18;101628.03;;;17.22;73.55
35910;BME280;22004;49.120;-0.200;2023-07-13T01:48:44;101626.19;;;17.29;74.68
35910;BME280;22004;49.120;-0.200;2023-07-13T01:51:09;101631.44;;;17.44;73.80
35910;BME280;22004;49.120;-0.200;2023-07-13T01:53:34;101631.88;;;17.47;73.98
35910;BME280;22004;49.120;-0.200;2023-07-13T01:56:00;101635.94;;;17.85;72.65
35910;BME280;22004;49.120;-0.200;2023-07-13T01:58:25;101635.53;;;17.88;72.70
35910;BME280;22004;49.120;-0.200;2023-07-13T02:00:51;101635.97;;;17.91;72.78
35910;BME280;22004;49.120;-0.200;2023-07-13T02:03:16;101632.22;;;17.92;72.41
35910;BME280;22004;49.120;-0.200;2023-07-13T02:05:44;101634.03;;;17.72;73.52
35910;BME280;22004;49.120;-0.200;2023-07-13T02:08:09;101624.28;;;17.91;72.69
35910;BME280;22004;49.120;-0.200;2023-07-13T02:10:35;101627.28;;;17.54;73.53
35910;BME280;22004;49.120;-0.200;2023-07-13T02:13:00;101628.28;;;17.34;73.38
35910;BME280;22004;49.120;-0.200;2023-07-13T02:15:25;101640.31;;;17.11;74.80
35910;BME280;22004;49.120;-0.200;2023-07-13T02:17:50;101637.63;;;17.18;74.51
35910;BME280;22004;49.120;-0.200;2023-07-13T02:20:16;101639.50;;;17.17;75.00
35910;BME280;22004;49.120;-0.200;2023-07-13T02:22:41;101642.13;;;17.58;74.18
35910;BME280;22004;49.120;-0.200;2023-07-13T02:25:07;101637.56;;;17.04;75.85
35910;BME280;22004;49.120;-0.200;2023-07-13T02:27:32;101637.91;;;16.95;75.99
35910;BME280;22004;49.120;-0.200;2023-07-13T02:29:58;101645.41;;;16.86;76.47
35910;BME280;22004;49.120;-0.200;2023-07-13T02:32:23;101643.72;;;16.85;76.06
35910;BME280;22004;49.120;-0.200;2023-07-13T02:34:51;101641.66;;;16.59;77.23
35910;BME280;22004;49.120;-0.200;2023-07-13T02:37:17;101643.19;;;17.03;77.30
35910;BME280;22004;49.120;-0.200;2023-07-13T02:39:42;101640.25;;;17.52;74.68
35910;BME280;22004;49.120;-0.200;2023-07-13T02:42:08;101635.75;;;17.25;75.28
35910;BME280;22004;49.120;-0.200;2023-07-13T02:44:33;101630.22;;;17.46;74.96
35910;BME280;22004;49.120;-0.200;2023-07-13T02:46:59;101622.41;;;17.30;75.92
35910;BME280;22004;49.120;-0.200;2023-07-13T02:49:24;101633.66;;;16.79;79.02
35910;BME280;22004;49.120;-0.200;2023-07-13T02:51:50;101628.34;;;17.47;76.00
35910;BME280;22004;49.120;-0.200;2023-07-13T02:54:16;101625.72;;;17.87;74.05
35910;BME280;22004;49.120;-0.200;2023-07-13T02:56:41;101629.03;;;17.08;77.23
35910;BME280;22004;49.120;-0.200;2023-07-13T02:59:08;101635.97;;;17.30;77.16
35910;BME280;22004;49.120;-0.200;2023-07-13T03:01:34;101641.91;;;17.53;76.39
35910;BME280;22004;49.120;-0.200;2023-07-13T03:04:00;101636.69;;;17.52;75.93
35910;BME280;22004;49.120;-0.200;2023-07-13T03:06:26;101645.97;;;17.84;75.08
35910;BME280;22004;49.120;-0.200;2023-07-13T03:08:55;101631.38;;;18.05;74.15
35910;BME280;22004;49.120;-0.200;2023-07-13T03:11:21;101645.41;;;17.95;73.97
35910;BME280;22004;49.120;-0.200;2023-07-13T03:13:47;101637.66;;;17.92;74.41
35910;BME280;22004;49.120;-0.200;2023-07-13T03:16:14;101629.44;;;17.72;75.02
35910;BME280;22004;49.120;-0.200;2023-07-13T03:18:41;101639.28;;;17.19;77.13
35910;BME280;22004;49.120;-0.200;2023-07-13T03:21:07;101638.13;;;16.93;78.57
35910;BME280;22004;49.120;-0.200;2023-07-13T03:23:32;101628.34;;;16.99;77.79
35910;BME280;22004;49.120;-0.200;2023-07-13T03:26:02;101635.25;;;16.67;79.71
35910;BME280;22004;49.120;-0.200;2023-07-13T03:28:28;101635.41;;;16.87;79.16
35910;BME280;22004;49.120;-0.200;2023-07-13T03:31:15;101643.22;;;17.10;78.60
35910;BME280;22004;49.120;-0.200;2023-07-13T03:33:41;101628.72;;;16.89;78.88
35910;BME280;22004;49.120;-0.200;2023-07-13T03:36:09;101616.75;;;16.49;80.30
35910;BME280;22004;49.120;-0.200;2023-07-13T03:38:35;101631.66;;;17.42;77.33
35910;BME280;22004;49.120;-0.200;2023-07-13T03:41:00;101627.97;;;17.09;77.88
35910;BME280;22004;49.120;-0.200;2023-07-13T03:43:26;101624.53;;;16.59;80.33
35910;BME280;22004;49.120;-0.200;2023-07-13T03:45:51;101630.91;;;17.14;78.26
35910;BME280;22004;49.120;-0.200;2023-07-13T03:48:17;101632.34;;;17.10;77.94
35910;BME280;22004;49.120;-0.200;2023-07-13T03:50:42;101631.06;;;17.53;77.19
35910;BME280;22004;49.120;-0.200;2023-07-13T03:53:08;101634.25;;;17.70;76.09
35910;BME280;22004;49.120;-0.200;2023-07-13T03:55:33;101631.44;;;17.37;76.38
35910;BME280;22004;49.120;-0.200;2023-07-13T04:00:49;101638.63;;;17.71;76.13
35910;BME280;22004;49.120;-0.200;2023-07-13T04:03:15;101645.56;;;17.80;75.51
35910;BME280;22004;49.120;-0.200;2023-07-13T04:05:41;101646.19;;;17.82;75.41
35910;BME280;22004;49.120;-0.200;2023-07-13T04:08:06;101645.47;;;17.47;76.76
35910;BME280;22004;49.120;-0.200;2023-07-13T04:10:32;101647.34;;;17.60;75.87
35910;BME280;22004;49.120;-0.200;2023-07-13T04:12:57;101653.84;;;17.59;75.83
35910;BME280;22004;49.120;-0.200;2023-07-13T04:15:23;101650.28;;;17.58;76.38
35910;BME280;22004;49.120;-0.200;2023-07-13T04:17:48;101657.22;;;17.68;75.29
35910;BME280;22004;49.120;-0.200;2023-07-13T04:20:13;101662.97;;;17.45;76.95
35910;BME280;22004;49.120;-0.200;2023-07-13T04:22:39;101666.34;;;17.05;76.96
35910;BME280;22004;49.120;-0.200;2023-07-13T04:25:04;101663.22;;;16.46;78.78
35910;BME280;22004;49.120;-0.200;2023-07-13T04:27:30;101660.41;;;16.82;78.44
35910;BME280;22004;49.120;-0.200;2023-07-13T04:29:55;101671.50;;;17.35;77.33
35910;BME280;22004;49.120;-0.200;2023-07-13T04:32:21;101668.38;;;17.31;77.20
35910;BME280;22004;49.120;-0.200;2023-07-13T04:34:46;101666.88;;;17.22;77.65
35910;BME280;22004;49.120;-0.200;2023-07-13T04:37:11;101670.88;;;17.88;75.24
35910;BME280;22004;49.120;-0.200;2023-07-13T04:39:37;101672.75;;;17.87;75.19
35910;BME280;22004;49.120;-0.200;2023-07-13T04:42:03;101668.53;;;17.78;75.23
35910;BME280;22004;49.120;-0.200;2023-07-13T04:44:28;101670.03;;;17.87;74.98
35910;BME280;22004;49.120;-0.200;2023-07-13T04:46:54;101676.69;;;17.78;74.27
35910;BME280;22004;49.120;-0.200;2023-07-13T04:49:19;101677.16;;;17.40;76.09
35910;BME280;22004;49.120;-0.200;2023-07-13T04:51:45;101679.03;;;18.01;74.59
35910;BME280;22004;49.120;-0.200;2023-07-13T04:54:10;101670.31;;;17.51;76.00
35910;BME280;22004;49.120;-0.200;2023-07-13T04:56:36;101679.56;;;17.70;75.83
35910;BME280;22004;49.120;-0.200;2023-07-13T04:59:01;101681.94;;;17.31;76.29
35910;BME280;22004;49.120;-0.200;2023-07-13T05:01:27;101678.28;;;17.59;76.32
35910;BME280;22004;49.120;-0.200;2023-07-13T05:03:52;101677.75;;;17.77;75.24
35910;BME280;22004;49.120;-0.200;2023-07-13T05:06:18;101682.78;;;17.87;74.88
35910;BME280;22004;49.120;-0.200;2023-07-13T05:08:43;101683.19;;;17.83;75.29
35910;BME280;22004;49.120;-0.200;2023-07-13T05:11:08;101683.53;;;17.61;75.39
35910;BME280;22004;49.120;-0.200;2023-07-13T05:13:34;101686.84;;;17.56;75.27
35910;BME280;22004;49.120;-0.200;2023-07-13T05:16:02;101689.66;;;17.82;75.64
35910;BME280;22004;49.120;-0.200;2023-07-13T05:18:28;101695.97;;;18.03;74.73
35910;BME280;22004;49.120;-0.200;2023-07-13T05:20:58;101692.28;;;17.69;75.25
35910;BME280;22004;49.120;-0.200;2023-07-13T05:23:24;101702.66;;;18.00;75.04
35910;BME280;22004;49.120;-0.200;2023-07-13T05:25:49;101704.53;;;17.45;76.77
35910;BME280;22004;49.120;-0.200;2023-07-13T05:28:15;101701.13;;;17.78;75.66
35910;BME280;22004;49.120;-0.200;2023-07-13T05:30:45;101696.97;;;17.89;75.23
35910;BME280;22004;49.120;-0.200;2023-07-13T05:33:10;101700.16;;;18.05;74.57
35910;BME280;22004;49.120;-0.200;2023-07-13T05:35:36;101702.25;;;18.10;74.39
35910;BME280;22004;49.120;-0.200;2023-07-13T05:38:01;101700.53;;;17.82;75.03
35910;BME280;22004;49.120;-0.200;2023-07-13T05:40:26;101702.19;;;17.77;74.92
35910;BME280;22004;49.120;-0.200;2023-07-13T05:42:52;101703.47;;;17.94;74.81
35910;BME280;22004;49.120;-0.200;2023-07-13T05:45:17;101706.22;;;18.07;74.60
35910;BME280;22004;49.120;-0.200;2023-07-13T05:47:42;101704.50;;;17.93;75.17
35910;BME280;22004;49.120;-0.200;2023-07-13T05:50:08;101699.34;;;17.50;75.70
35910;BME280;22004;49.120;-0.200;2023-07-13T05:52:34;101703.84;;;17.85;75.84
35910;BME280;22004;49.120;-0.200;2023-07-13T05:54:59;101705.78;;;17.97;74.83
35910;BME280;22004;49.120;-0.200;2023-07-13T05:57:24;101707.06;;;18.21;74.04
35910;BME280;22004;49.120;-0.200;2023-07-13T05:59:50;101708.94;;;18.01;74.95
35910;BME280;22004;49.120;-0.200;2023-07-13T06:02:15;101707.47;;;18.18;74.15
35910;BME280;22004;49.120;-0.200;2023-07-13T06:04:40;101707.44;;;17.37;76.83
35910;BME280;22004;49.120;-0.200;2023-07-13T06:07:06;101709.72;;;17.81;75.50
35910;BME280;22004;49.120;-0.200;2023-07-13T06:09:31;101707.44;;;18.05;74.86
35910;BME280;22004;49.120;-0.200;2023-07-13T06:11:57;101712.28;;;17.48;75.68
35910;BME280;22004;49.120;-0.200;2023-07-13T06:14:22;101716.16;;;17.74;76.32
35910;BME280;22004;49.120;-0.200;2023-07-13T06:16:47;101721.47;;;17.47;76.47
35910;BME280;22004;49.120;-0.200;2023-07-13T06:19:13;101725.25;;;18.14;75.01
35910;BME280;22004;49.120;-0.200;2023-07-13T06:21:38;101726.97;;;17.67;76.58
35910;BME280;22004;49.120;-0.200;2023-07-13T06:24:04;101728.25;;;17.71;75.62
35910;BME280;22004;49.120;-0.200;2023-07-13T06:26:29;101728.13;;;17.45;77.20
35910;BME280;22004;49.120;-0.200;2023-07-13T06:28:54;101730.06;;;17.57;76.64
35910;BME280;22004;49.120;-0.200;2023-07-13T06:31:20;101733.56;;;17.45;77.06
35910;BME280;22004;49.120;-0.200;2023-07-13T06:33:45;101733.38;;;18.01;75.65
35910;BME280;22004;49.120;-0.200;2023-07-13T06:36:11;101731.34;;;17.62;76.45
35910;BME280;22004;49.120;-0.200;2023-07-13T06:38:37;101740.94;;;17.57;76.92
35910;BME280;22004;49.120;-0.200;2023-07-13T06:41:04;101735.53;;;17.64;77.13
35910;BME280;22004;49.120;-0.200;2023-07-13T06:43:29;101738.38;;;17.97;75.67
35910;BME280;22004;49.120;-0.200;2023-07-13T06:45:56;101749.41;;;17.82;76.37
35910;BME280;22004;49.120;-0.200;2023-07-13T06:48:22;101750.53;;;17.53;76.81
35910;BME280;22004;49.120;-0.200;2023-07-13T06:50:49;101745.88;;;17.82;75.98
35910;BME280;22004;49.120;-0.200;2023-07-13T06:53:19;101747.69;;;17.75;75.70
35910;BME280;22004;49.120;-0.200;2023-07-13T06:55:44;101763.84;;;17.83;76.32
35910;BME280;22004;49.120;-0.200;2023-07-13T06:58:10;101768.50;;;18.02;75.31
35910;BME280;22004;49.120;-0.200;2023-07-13T07:00:36;101768.53;;;17.68;76.16
35910;BME280;22004;49.120;-0.200;2023-07-13T07:03:01;101769.06;;;17.85;76.31
35910;BME280;22004;49.120;-0.200;2023-07-13T07:05:26;101781.28;;;17.67;76.48
35910;BME280;22004;49.120;-0.200;2023-07-13T07:07:54;101784.19;;;18.00;75.80
35910;BME280;22004;49.120;-0.200;2023-07-13T07:10:20;101791.72;;;17.64;76.76
35910;BME280;22004;49.120;-0.200;2023-07-13T07:12:45;101791.47;;;17.17;78.58
35910;BME280;22004;49.120;-0.200;2023-07-13T07:15:11;101794.22;;;17.24;77.91
35910;BME280;22004;49.120;-0.200;2023-07-13T07:17:37;101794.78;;;17.54;77.63
35910;BME280;22004;49.120;-0.200;2023-07-13T07:20:03;101809.47;;;18.07;75.53
35910;BME280;22004;49.120;-0.200;2023-07-13T07:22:29;101804.31;;;17.37;78.08
35910;BME280;22004;49.120;-0.200;2023-07-13T07:24:55;101810.78;;;17.36;78.23
35910;BME280;22004;49.120;-0.200;2023-07-13T07:27:21;101812.47;;;17.09;77.70
35910;BME280;22004;49.120;-0.200;2023-07-13T07:29:46;101815.53;;;17.62;77.59
35910;BME280;22004;49.120;-0.200;2023-07-13T07:32:12;101814.50;;;17.28;77.96
35910;BME280;22004;49.120;-0.200;2023-07-13T07:34:37;101822.31;;;17.79;76.83
35910;BME280;22004;49.120;-0.200;2023-07-13T07:37:03;101822.84;;;17.61;77.68
35910;BME280;22004;49.120;-0.200;2023-07-13T07:39:29;101815.06;;;17.51;76.92
35910;BME280;22004;49.120;-0.200;2023-07-13T07:41:54;101826.59;;;18.01;76.27
35910;BME280;22004;49.120;-0.200;2023-07-13T07:44:20;101832.88;;;18.02;76.35
35910;BME280;22004;49.120;-0.200;2023-07-13T07:46:46;101830.56;;;17.64;76.79
35910;BME280;22004;49.120;-0.200;2023-07-13T07:49:11;101841.03;;;17.67;76.80
35910;BME280;22004;49.120;-0.200;2023-07-13T07:51:37;101831.38;;;17.99;75.79
35910;BME280;22004;49.120;-0.200;2023-07-13T07:54:03;101836.56;;;17.53;77.43
35910;BME280;22004;49.120;-0.200;2023-07-13T07:56:29;101830.09;;;17.89;76.25
35910;BME280;22004;49.120;-0.200;2023-07-13T07:58:55;101837.16;;;17.76;76.62
35910;BME280;22004;49.120;-0.200;2023-07-13T08:01:20;101837.63;;;17.93;76.66
35910;BME280;22004;49.120;-0.200;2023-07-13T08:03:46;101835.47;;;17.75;77.32
35910;BME280;22004;49.120;-0.200;2023-07-13T08:06:11;101829.34;;;18.15;76.04
35910;BME280;22004;49.120;-0.200;2023-07-13T08:08:36;101837.34;;;18.29;75.13
35910;BME280;22004;49.120;-0.200;2023-07-13T08:11:04;101829.84;;;18.38;74.48
35910;BME280;22004;49.120;-0.200;2023-07-13T08:13:29;101829.16;;;18.16;75.17
35910;BME280;22004;49.120;-0.200;2023-07-13T08:15:55;101838.13;;;18.10;75.96
35910;BME280;22004;49.120;-0.200;2023-07-13T08:18:20;101833.63;;;18.64;74.66
35910;BME280;22004;49.120;-0.200;2023-07-13T08:20:45;101833.63;;;18.50;75.33
35910;BME280;22004;49.120;-0.200;2023-07-13T08:23:11;101842.69;;;17.96;75.68
35910;BME280;22004;49.120;-0.200;2023-07-13T08:25:36;101848.63;;;18.26;75.65
35910;BME280;22004;49.120;-0.200;2023-07-13T08:28:03;101838.47;;;18.62;74.31
35910;BME280;22004;49.120;-0.200;2023-07-13T08:30:28;101843.44;;;18.38;75.04
35910;BME280;22004;49.120;-0.200;2023-07-13T08:32:54;101851.13;;;18.21;76.07
35910;BME280;22004;49.120;-0.200;2023-07-13T08:35:19;101849.25;;;18.28;75.90
35910;BME280;22004;49.120;-0.200;2023-07-13T08:37:45;101853.47;;;18.38;76.23
35910;BME280;22004;49.120;-0.200;2023-07-13T08:40:11;101858.47;;;18.27;75.61
35910;BME280;22004;49.120;-0.200;2023-07-13T08:42:45;101855.88;;;18.06;76.83
35910;BME280;22004;49.120;-0.200;2023-07-13T08:45:18;101855.34;;;18.37;75.37
35910;BME280;22004;49.120;-0.200;2023-07-13T08:47:55;101850.53;;;18.32;76.94
35910;BME280;22004;49.120;-0.200;2023-07-13T08:50:25;101854.97;;;18.53;75.39
35910;BME280;22004;49.120;-0.200;2023-07-13T08:52:52;101854.97;;;18.53;75.67
35910;BME280;22004;49.120;-0.200;2023-07-13T08:55:22;101855.41;;;18.50;75.83
35910;BME280;22004;49.120;-0.200;2023-07-13T08:57:56;101859.69;;;18.18;77.37
35910;BME280;22004;49.120;-0.200;2023-07-13T09:00:35;101858.63;;;18.19;76.75
35910;BME280;22004;49.120;-0.200;2023-07-13T09:03:02;101864.25;;;18.11;78.47
35910;BME280;22004;49.120;-0.200;2023-07-13T09:05:31;101851.78;;;17.75;79.58
35910;BME280;22004;49.120;-0.200;2023-07-13T09:10:53;101833.78;;;18.29;76.45
35910;BME280;22004;49.120;-0.200;2023-07-13T09:16:03;101845.16;;;17.56;79.65
35910;BME280;22004;49.120;-0.200;2023-07-13T09:21:13;101842.91;;;17.67;81.45
35910;BME280;22004;49.120;-0.200;2023-07-13T09:23:40;101848.84;;;17.49;84.21
35910;BME280;22004;49.120;-0.200;2023-07-13T09:26:18;101849.47;;;18.20;79.28
35910;BME280;22004;49.120;-0.200;2023-07-13T09:28:47;101841.63;;;19.18;74.84
35910;BME280;22004;49.120;-0.200;2023-07-13T09:31:16;101834.13;;;20.36;71.93
35910;BME280;22004;49.120;-0.200;2023-07-13T09:33:42;101836.28;;;19.90;72.72
35910;BME280;22004;49.120;-0.200;2023-07-13T09:36:25;101837.28;;;19.95;71.19
35910;BME280;22004;49.120;-0.200;2023-07-13T09:39:15;101829.59;;;20.24;71.56
35910;BME280;22004;49.120;-0.200;2023-07-13T09:42:16;101826.50;;;20.13;72.45
35910;BME280;22004;49.120;-0.200;2023-07-13T09:47:22;101851.69;;;19.31;76.92
35910;BME280;22004;49.120;-0.200;2023-07-13T09:49:54;101846.84;;;19.33;77.14
35910;BME280;22004;49.120;-0.200;2023-07-13T09:52:20;101845.78;;;19.47;76.44
35910;BME280;22004;49.120;-0.200;2023-07-13T09:54:50;101849.38;;;19.08;78.68
35910;BME280;22004;49.120;-0.200;2023-07-13T09:57:18;101839.34;;;19.15;81.23
35910;BME280;22004;49.120;-0.200;2023-07-13T09:59:46;101838.28;;;19.03;79.56
35910;BME280;22004;49.120;-0.200;2023-07-13T10:02:34;101841.84;;;19.17;76.82
35910;BME280;22004;49.120;-0.200;2023-07-13T10:05:11;101851.47;;;18.99;77.58
35910;BME280;22004;49.120;-0.200;2023-07-13T10:07:44;101846.81;;;18.53;80.56
35910;BME280;22004;49.120;-0.200;2023-07-13T10:10:15;101846.69;;;18.75;80.68
35910;BME280;22004;49.120;-0.200;2023-07-13T10:12:41;101849.59;;;19.26;77.08
35910;BME280;22004;49.120;-0.200;2023-07-13T10:15:14;101845.38;;;19.50;78.28
35910;BME280;22004;49.120;-0.200;2023-07-13T10:17:40;101843.03;;;19.67;78.95
35910;BME280;22004;49.120;-0.200;2023-07-13T10:20:06;101845.09;;;19.85;76.56
35910;BME280;22004;49.120;-0.200;2023-07-13T10:23:19;101842.19;;;20.18;76.68
35910;BME280;22004;49.120;-0.200;2023-07-13T10:25:38;101838.28;;;20.07;76.77
35910;BME280;22004;49.120;-0.200;2023-07-13T10:28:29;101842.72;;;20.02;75.13
35910;BME280;22004;49.120;-0.200;2023-07-13T10:30:56;101841.00;;;20.52;75.58
35910;BME280;22004;49.120;-0.200;2023-07-13T10:33:23;101840.91;;;20.27;71.61
35910;BME280;22004;49.120;-0.200;2023-07-13T10:35:51;101843.53;;;20.47;70.89
35910;BME280;22004;49.120;-0.200;2023-07-13T10:38:21;101839.72;;;20.55;74.09
35910;BME280;22004;49.120;-0.200;2023-07-13T10:40:58;101849.06;;;20.34;68.58
35910;BME280;22004;49.120;-0.200;2023-07-13T10:43:35;101849.09;;;20.65;72.03
35910;BME280;22004;49.120;-0.200;2023-07-13T10:46:06;101850.69;;;20.42;68.58
35910;BME280;22004;49.120;-0.200;2023-07-13T10:48:34;101849.34;;;20.89;68.81
35910;BME280;22004;49.120;-0.200;2023-07-13T10:51:04;101845.16;;;21.11;71.04
35910;BME280;22004;49.120;-0.200;2023-07-13T10:53:33;101840.31;;;20.88;70.63
35910;BME280;22004;49.120;-0.200;2023-07-13T10:56:06;101846.13;;;20.67;73.27
35910;BME280;22004;49.120;-0.200;2023-07-13T10:58:43;101842.31;;;20.75;69.18
35910;BME280;22004;49.120;-0.200;2023-07-13T11:06:09;101836.34;;;19.70;72.49
35910;BME280;22004;49.120;-0.200;2023-07-13T11:13:57;101844.97;;;19.27;71.22
35910;BME280;22004;49.120;-0.200;2023-07-13T11:21:29;101828.00;;;19.31;70.80
35910;BME280;22004;49.120;-0.200;2023-07-13T11:24:21;101822.53;;;19.65;70.17
35910;BME280;22004;49.120;-0.200;2023-07-13T11:31:42;101835.94;;;19.46;69.24
35910;BME280;22004;49.120;-0.200;2023-07-13T11:34:15;101830.91;;;19.70;68.87
35910;BME280;22004;49.120;-0.200;2023-07-13T11:36:44;101821.72;;;20.02;68.12
35910;BME280;22004;49.120;-0.200;2023-07-13T11:39:36;101831.59;;;20.42;66.05
35910;BME280;22004;49.120;-0.200;2023-07-13T11:42:05;101825.28;;;20.48;63.55
35910;BME280;22004;49.120;-0.200;2023-07-13T11:44:34;101829.91;;;20.47;65.11
35910;BME280;22004;49.120;-0.200;2023-07-13T11:47:08;101818.13;;;20.15;63.52
35910;BME280;22004;49.120;-0.200;2023-07-13T11:49:42;101817.47;;;20.20;63.32
35910;BME280;22004;49.120;-0.200;2023-07-13T11:52:11;101812.72;;;20.02;64.61
35910;BME280;22004;49.120;-0.200;2023-07-13T11:57:26;101816.03;;;20.10;63.53
35910;BME280;22004;49.120;-0.200;2023-07-13T11:59:54;101813.72;;;20.77;64.33
35910;BME280;22004;49.120;-0.200;2023-07-13T12:02:32;101814.94;;;20.56;64.43
35910;BME280;22004;49.120;-0.200;2023-07-13T12:04:59;101814.47;;;20.66;68.69
35910;BME280;22004;49.120;-0.200;2023-07-13T12:07:28;101818.56;;;20.44;66.65
35910;BME280;22004;49.120;-0.200;2023-07-13T12:10:01;101813.28;;;20.17;66.85
35910;BME280;22004;49.120;-0.200;2023-07-13T12:12:29;101808.69;;;20.11;67.68
35910;BME280;22004;49.120;-0.200;2023-07-13T12:14:55;101810.06;;;20.27;68.44
35910;BME280;22004;49.120;-0.200;2023-07-13T12:17:23;101816.94;;;19.98;67.71
35910;BME280;22004;49.120;-0.200;2023-07-13T12:19:50;101805.28;;;19.77;67.11
35910;BME280;22004;49.120;-0.200;2023-07-13T12:22:17;101820.94;;;19.88;66.41
35910;BME280;22004;49.120;-0.200;2023-07-13T12:24:44;101824.28;;;19.97;66.94
35910;BME280;22004;49.120;-0.200;2023-07-13T12:27:21;101816.47;;;20.07;65.48
35910;BME280;22004;49.120;-0.200;2023-07-13T12:29:50;101818.09;;;20.53;64.91
35910;BME280;22004;49.120;-0.200;2023-07-13T12:32:18;101817.75;;;21.00;63.97
35910;BME280;22004;49.120;-0.200;2023-07-13T12:35:16;101813.97;;;21.62;58.04
35910;BME280;22004;49.120;-0.200;2023-07-13T12:37:43;101801.13;;;22.00;58.78
35910;BME280;22004;49.120;-0.200;2023-07-13T12:40:16;101801.41;;;22.40;58.97
35910;BME280;22004;49.120;-0.200;2023-07-13T12:42:44;101802.50;;;22.51;59.51
35910;BME280;22004;49.120;-0.200;2023-07-13T12:45:25;101795.09;;;21.79;62.20
35910;BME280;22004;49.120;-0.200;2023-07-13T12:47:56;101787.63;;;21.31;62.33
35910;BME280;22004;49.120;-0.200;2023-07-13T12:50:30;101792.38;;;21.17;60.96
35910;BME280;22004;49.120;-0.200;2023-07-13T12:53:04;101795.41;;;21.28;60.32
35910;BME280;22004;49.120;-0.200;2023-07-13T12:55:41;101802.78;;;21.27;63.08
35910;BME280;22004;49.120;-0.200;2023-07-13T12:58:10;101792.59;;;21.16;61.86
35910;BME280;22004;49.120;-0.200;2023-07-13T13:00:41;101793.28;;;21.11;61.36
35910;BME280;22004;49.120;-0.200;2023-07-13T13:03:21;101794.19;;;21.05;63.29
35910;BME280;22004;49.120;-0.200;2023-07-13T13:05:47;101792.88;;;20.89;61.31
35910;BME280;22004;49.120;-0.200;2023-07-13T13:08:15;101799.25;;;21.02;62.83
35910;BME280;22004;49.120;-0.200;2023-07-13T13:10:40;101800.03;;;21.09;62.99
35910;BME280;22004;49.120;-0.200;2023-07-13T13:13:06;101798.50;;;21.13;62.05
35910;BME280;22004;49.120;-0.200;2023-07-13T13:15:31;101789.72;;;21.54;60.48
35910;BME280;22004;49.120;-0.200;2023-07-13T13:17:57;101803.09;;;21.92;59.55
35910;BME280;22004;49.120;-0.200;2023-07-13T13:20:24;101791.66;;;21.47;61.55
35910;BME280;22004;49.120;-0.200;2023-07-13T13:22:53;101792.72;;;21.03;61.36
35910;BME280;22004;49.120;-0.200;2023-07-13T13:25:19;101793.88;;;20.70;62.18
35910;BME280;22004;49.120;-0.200;2023-07-13T13:27:45;101804.09;;;20.43;63.72
35910;BME280;22004;49.120;-0.200;2023-07-13T13:30:11;101792.34;;;20.11;63.95
35910;BME280;22004;49.120;-0.200;2023-07-13T13:32:41;101808.28;;;20.14;64.84
35910;BME280;22004;49.120;-0.200;2023-07-13T13:35:18;101801.53;;;20.17;62.92
35910;BME280;22004;49.120;-0.200;2023-07-13T13:37:44;101806.88;;;20.36;63.66
35910;BME280;22004;49.120;-0.200;2023-07-13T13:40:21;101809.19;;;20.33;64.14
35910;BME280;22004;49.120;-0.200;2023-07-13T13:42:50;101804.09;;;20.50;63.96
35910;BME280;22004;49.120;-0.200;2023-07-13T13:45:16;101900.41;;;20.82;62.64
35910;BME280;22004;49.120;-0.200;2023-07-13T13:47:43;101991.72;;;20.86;63.23
35910;BME280;22004;49.120;-0.200;2023-07-13T13:50:20;101811.91;;;20.96;62.46
35910;BME280;22004;49.120;-0.200;2023-07-13T13:52:47;101814.63;;;20.96;62.95
35910;BME280;22004;49.120;-0.200;2023-07-13T13:55:18;101828.84;;;21.23;62.42
35910;BME280;22004;49.120;-0.200;2023-07-13T13:57:45;101803.19;;;21.31;61.02
35910;BME280;22004;49.120;-0.200;2023-07-13T14:00:11;101796.44;;;21.08;61.33
35910;BME280;22004;49.120;-0.200;2023-07-13T14:02:40;101788.88;;;21.35;60.88
35910;BME280;22004;49.120;-0.200;2023-07-13T14:05:09;101785.75;;;21.32;60.22
35910;BME280;22004;49.120;-0.200;2023-07-13T14:07:37;101777.78;;;21.49;60.61
35910;BME280;22004;49.120;-0.200;2023-07-13T14:10:11;101792.56;;;21.78;57.88
35910;BME280;22004;49.120;-0.200;2023-07-13T14:12:37;101790.94;;;22.37;60.33
35910;BME280;22004;49.120;-0.200;2023-07-13T14:15:03;101781.19;;;22.41;56.62
35910;BME280;22004;49.120;-0.200;2023-07-13T14:17:29;101781.56;;;22.56;58.11
35910;BME280;22004;49.120;-0.200;2023-07-13T14:19:56;101776.69;;;21.68;60.45
35910;BME280;22004;49.120;-0.200;2023-07-13T14:22:25;101783.41;;;22.02;57.99
35910;BME280;22004;49.120;-0.200;2023-07-13T14:24:54;101775.41;;;22.49;54.79
35910;BME280;22004;49.120;-0.200;2023-07-13T14:27:21;101781.91;;;21.88;59.32
35910;BME280;22004;49.120;-0.200;2023-07-13T14:29:47;101767.06;;;21.47;61.02
35910;BME280;22004;49.120;-0.200;2023-07-13T14:32:12;101773.75;;;22.60;57.37
35910;BME280;22004;49.120;-0.200;2023-07-13T14:34:39;101774.06;;;22.10;58.67
35910;BME280;22004;49.120;-0.200;2023-07-13T14:37:04;101773.38;;;21.48;58.08
35910;BME280;22004;49.120;-0.200;2023-07-13T14:39:31;101777.09;;;21.35;59.00
35910;BME280;22004;49.120;-0.200;2023-07-13T14:41:57;101776.50;;;21.70;58.92
35910;BME280;22004;49.120;-0.200;2023-07-13T14:44:30;101772.25;;;21.74;61.02
35910;BME280;22004;49.120;-0.200;2023-07-13T14:46:58;101774.44;;;21.65;60.12
35910;BME280;22004;49.120;-0.200;2023-07-13T14:49:28;101770.09;;;22.24;58.32
35910;BME280;22004;49.120;-0.200;2023-07-13T14:51:57;101771.84;;;22.60;54.01
35910;BME280;22004;49.120;-0.200;2023-07-13T14:54:23;101774.28;;;22.08;55.98
35910;BME280;22004;49.120;-0.200;2023-07-13T14:56:49;101773.59;;;21.64;58.00
35910;BME280;22004;49.120;-0.200;2023-07-13T14:59:14;101771.13;;;21.45;59.64